sensor_id;sensor_type;location;lat;lon;timestamp;P1;durP1;ratioP1;P2;durP2;ratioP2
70406;SDS011;57821;52.202;0.154;2022-09-09T00:02:08;11.07;;;2.70;;
70406;SDS011;57821;52.202;0.154;2022-09-09T00:04:40;10.68;;;3.10;;
70406;SDS011;57821;52.202;0.154;2022-09-09T00:07:43;10.10;;;2.38;;
70406;SDS011;57821;52.202;0.154;2022-09-09T00:10:25;11.98;;;2.72;;
70406;SDS011;57821;52.202;0.154;2022-09-09T00:13:08;10.07;;;2.28;;
70406;SDS011;57821;52.202;0.154;2022-09-09T00:18:46;11.57;;;3.33;;
70406;SDS011;57821;52.202;0.154;2022-09-09T00:21:34;16.02;;;2.97;;
70406;SDS011;57821;52.202;0.154;2022-09-09T00:24:10;8.88;;;2.63;;
70406;SDS011;57821;52.202;0.154;2022-09-09T00:26:47;12.25;;;2.45;;
70406;SDS011;57821;52.202;0.154;2022-09-09T00:29:23;12.35;;;3.20;;
70406;SDS011;57821;52.202;0.154;2022-09-09T00:31:54;11.02;;;2.95;;
70406;SDS011;57821;52.202;0.154;2022-09-09T00:34:26;9.40;;;2.58;;
70406;SDS011;57821;52.202;0.154;2022-09-09T00:36:54;10.20;;;2.90;;
70406;SDS011;57821;52.202;0.154;2022-09-09T00:39:32;11.77;;;2.50;;
70406;SDS011;57821;52.202;0.154;2022-09-09T00:44:39;10.93;;;2.38;;
70406;SDS011;57821;52.202;0.154;2022-09-09T00:47:22;12.95;;;2.67;;
70406;SDS011;57821;52.202;0.154;2022-09-09T00:49:59;10.73;;;3.65;;
70406;SDS011;57821;52.202;0.154;2022-09-09T00:55:04;14.68;;;3.20;;
70406;SDS011;57821;52.202;0.154;2022-09-09T00:57:32;11.73;;;3.20;;
70406;SDS011;57821;52.202;0.154;2022-09-09T01:05:20;12.55;;;3.13;;
70406;SDS011;57821;52.202;0.154;2022-09-09T01:07:56;13.15;;;3.10;;
70406;SDS011;57821;52.202;0.154;2022-09-09T01:10:34;11.07;;;2.90;;
70406;SDS011;57821;52.202;0.154;2022-09-09T01:13:11;7.38;;;2.78;;
70406;SDS011;57821;52.202;0.154;2022-09-09T01:15:43;11.63;;;2.83;;
70406;SDS011;57821;52.202;0.154;2022-09-09T01:18:12;10.45;;;2.47;;
70406;SDS011;57821;52.202;0.154;2022-09-09T01:20:53;14.00;;;3.00;;
70406;SDS011;57821;52.202;0.154;2022-09-09T01:26:42;11.25;;;2.60;;
70406;SDS011;57821;52.202;0.154;2022-09-09T01:29:19;12.85;;;3.72;;
70406;SDS011;57821;52.202;0.154;2022-09-09T01:32:00;11.13;;;3.35;;
70406;SDS011;57821;52.202;0.154;2022-09-09T01:34:36;15.02;;;3.25;;
70406;SDS011;57821;52.202;0.154;2022-09-09T01:37:07;15.55;;;3.35;;
70406;SDS011;57821;52.202;0.154;2022-09-09T01:39:38;10.52;;;3.00;;
70406;SDS011;57821;52.202;0.154;2022-09-09T01:44:39;9.07;;;2.80;;
70406;SDS011;57821;52.202;0.154;2022-09-09T01:47:05;11.93;;;2.85;;
70406;SDS011;57821;52.202;0.154;2022-09-09T01:49:35;9.85;;;3.03;;
70406;SDS011;57821;52.202;0.154;2022-09-09T01:52:09;8.15;;;3.17;;
70406;SDS011;57821;52.202;0.154;2022-09-09T01:54:37;9.48;;;3.03;;
70406;SDS011;57821;52.202;0.154;2022-09-09T01:57:23;17.42;;;3.58;;
70406;SDS011;57821;52.202;0.154;2022-09-09T02:05:45;12.10;;;3.20;;
70406;SDS011;57821;52.202;0.154;2022-09-09T02:11:22;11.57;;;2.92;;
70406;SDS011;57821;52.202;0.154;2022-09-09T02:14:00;12.48;;;2.95;;
70406;SDS011;57821;52.202;0.154;2022-09-09T02:19:15;13.50;;;3.47;;
70406;SDS011;57821;52.202;0.154;2022-09-09T02:22:01;12.38;;;3.53;;
70406;SDS011;57821;52.202;0.154;2022-09-09T02:24:29;8.80;;;2.95;;
70406;SDS011;57821;52.202;0.154;2022-09-09T02:27:12;10.95;;;3.92;;
70406;SDS011;57821;52.202;0.154;2022-09-09T02:29:41;14.00;;;3.97;;
70406;SDS011;57821;52.202;0.154;2022-09-09T02:32:14;16.65;;;4.10;;
70406;SDS011;57821;52.202;0.154;2022-09-09T02:34:47;11.93;;;3.50;;
70406;SDS011;57821;52.202;0.154;2022-09-09T02:39:48;19.15;;;3.90;;
70406;SDS011;57821;52.202;0.154;2022-09-09T02:42:18;13.13;;;3.05;;
70406;SDS011;57821;52.202;0.154;2022-09-09T02:44:45;11.43;;;3.85;;
70406;SDS011;57821;52.202;0.154;2022-09-09T02:50:05;14.30;;;3.75;;
70406;SDS011;57821;52.202;0.154;2022-09-09T02:55:39;13.45;;;3.53;;
70406;SDS011;57821;52.202;0.154;2022-09-09T02:58:10;13.10;;;3.55;;
70406;SDS011;57821;52.202;0.154;2022-09-09T03:00:40;11.75;;;3.28;;
70406;SDS011;57821;52.202;0.154;2022-09-09T03:03:07;13.27;;;3.42;;
70406;SDS011;57821;52.202;0.154;2022-09-09T03:05:36;13.23;;;3.33;;
70406;SDS011;57821;52.202;0.154;2022-09-09T03:08:04;16.13;;;3.65;;
70406;SDS011;57821;52.202;0.154;2022-09-09T03:10:32;14.75;;;4.25;;
70406;SDS011;57821;52.202;0.154;2022-09-09T03:12:58;12.32;;;3.85;;
70406;SDS011;57821;52.202;0.154;2022-09-09T03:15:28;15.35;;;3.80;;
70406;SDS011;57821;52.202;0.154;2022-09-09T03:17:55;14.18;;;3.38;;
70406;SDS011;57821;52.202;0.154;2022-09-09T03:20:23;11.93;;;4.10;;
70406;SDS011;57821;52.202;0.154;2022-09-09T03:22:54;15.77;;;4.28;;
70406;SDS011;57821;52.202;0.154;2022-09-09T03:25:21;14.77;;;4.43;;
70406;SDS011;57821;52.202;0.154;2022-09-09T03:27:49;17.77;;;4.20;;
70406;SDS011;57821;52.202;0.154;2022-09-09T03:30:17;15.85;;;5.88;;
70406;SDS011;57821;52.202;0.154;2022-09-09T03:32:44;17.15;;;5.07;;
70406;SDS011;57821;52.202;0.154;2022-09-09T03:35:14;17.67;;;5.05;;
70406;SDS011;57821;52.202;0.154;2022-09-09T03:37:41;19.17;;;5.50;;
70406;SDS011;57821;52.202;0.154;2022-09-09T03:40:09;13.48;;;5.10;;
70406;SDS011;57821;52.202;0.154;2022-09-09T03:42:37;17.27;;;5.97;;
70406;SDS011;57821;52.202;0.154;2022-09-09T03:45:05;15.43;;;4.82;;
70406;SDS011;57821;52.202;0.154;2022-09-09T03:47:33;13.75;;;5.07;;
70406;SDS011;57821;52.202;0.154;2022-09-09T03:50:04;15.87;;;5.03;;
70406;SDS011;57821;52.202;0.154;2022-09-09T03:52:33;15.18;;;5.28;;
70406;SDS011;57821;52.202;0.154;2022-09-09T03:55:01;11.95;;;5.03;;
70406;SDS011;57821;52.202;0.154;2022-09-09T03:57:28;10.82;;;4.50;;
70406;SDS011;57821;52.202;0.154;2022-09-09T03:59:54;21.83;;;6.15;;
70406;SDS011;57821;52.202;0.154;2022-09-09T04:02:21;17.48;;;6.13;;
70406;SDS011;57821;52.202;0.154;2022-09-09T04:04:48;18.10;;;5.50;;
70406;SDS011;57821;52.202;0.154;2022-09-09T04:07:14;13.80;;;5.40;;
70406;SDS011;57821;52.202;0.154;2022-09-09T04:09:42;19.13;;;5.93;;
70406;SDS011;57821;52.202;0.154;2022-09-09T04:12:09;18.15;;;5.65;;
70406;SDS011;57821;52.202;0.154;2022-09-09T04:14:35;19.05;;;6.40;;
70406;SDS011;57821;52.202;0.154;2022-09-09T04:17:04;18.30;;;7.55;;
70406;SDS011;57821;52.202;0.154;2022-09-09T04:19:30;19.00;;;5.60;;
70406;SDS011;57821;52.202;0.154;2022-09-09T04:21:57;18.52;;;6.90;;
70406;SDS011;57821;52.202;0.154;2022-09-09T04:24:24;19.23;;;6.22;;
70406;SDS011;57821;52.202;0.154;2022-09-09T04:26:51;20.77;;;6.40;;
70406;SDS011;57821;52.202;0.154;2022-09-09T04:29:17;15.15;;;6.32;;
70406;SDS011;57821;52.202;0.154;2022-09-09T04:31:44;20.75;;;6.25;;
70406;SDS011;57821;52.202;0.154;2022-09-09T04:34:11;17.27;;;7.22;;
70406;SDS011;57821;52.202;0.154;2022-09-09T04:36:38;19.98;;;6.55;;
70406;SDS011;57821;52.202;0.154;2022-09-09T04:39:05;23.63;;;7.50;;
70406;SDS011;57821;52.202;0.154;2022-09-09T04:41:32;22.35;;;6.38;;
70406;SDS011;57821;52.202;0.154;2022-09-09T04:43:58;18.48;;;5.72;;
70406;SDS011;57821;52.202;0.154;2022-09-09T04:46:25;19.58;;;7.18;;
70406;SDS011;57821;52.202;0.154;2022-09-09T04:48:52;20.48;;;7.70;;
70406;SDS011;57821;52.202;0.154;2022-09-09T04:51:18;19.67;;;6.38;;
70406;SDS011;57821;52.202;0.154;2022-09-09T04:53:47;19.00;;;6.47;;
70406;SDS011;57821;52.202;0.154;2022-09-09T04:56:15;18.73;;;6.90;;
70406;SDS011;57821;52.202;0.154;2022-09-09T04:58:50;19.58;;;6.53;;
70406;SDS011;57821;52.202;0.154;2022-09-09T05:01:20;23.92;;;7.85;;
70406;SDS011;57821;52.202;0.154;2022-09-09T05:03:49;23.88;;;6.70;;
70406;SDS011;57821;52.202;0.154;2022-09-09T05:06:19;26.15;;;7.72;;
70406;SDS011;57821;52.202;0.154;2022-09-09T05:08:50;25.70;;;7.43;;
70406;SDS011;57821;52.202;0.154;2022-09-09T05:11:22;25.80;;;7.38;;
70406;SDS011;57821;52.202;0.154;2022-09-09T05:13:53;23.88;;;8.50;;
70406;SDS011;57821;52.202;0.154;2022-09-09T05:16:20;21.50;;;8.05;;
70406;SDS011;57821;52.202;0.154;2022-09-09T05:18:48;20.90;;;9.75;;
70406;SDS011;57821;52.202;0.154;2022-09-09T05:21:16;28.13;;;9.55;;
70406;SDS011;57821;52.202;0.154;2022-09-09T05:23:44;24.80;;;10.13;;
70406;SDS011;57821;52.202;0.154;2022-09-09T05:26:12;21.27;;;8.93;;
70406;SDS011;57821;52.202;0.154;2022-09-09T05:28:44;22.55;;;9.80;;
70406;SDS011;57821;52.202;0.154;2022-09-09T05:31:12;22.90;;;9.55;;
70406;SDS011;57821;52.202;0.154;2022-09-09T05:33:42;21.33;;;9.93;;
70406;SDS011;57821;52.202;0.154;2022-09-09T05:36:12;23.67;;;10.10;;
70406;SDS011;57821;52.202;0.154;2022-09-09T05:38:40;22.75;;;10.50;;
70406;SDS011;57821;52.202;0.154;2022-09-09T05:41:08;25.30;;;10.65;;
70406;SDS011;57821;52.202;0.154;2022-09-09T05:43:35;22.30;;;9.88;;
70406;SDS011;57821;52.202;0.154;2022-09-09T05:46:05;23.10;;;9.60;;
70406;SDS011;57821;52.202;0.154;2022-09-09T05:48:34;23.25;;;9.57;;
70406;SDS011;57821;52.202;0.154;2022-09-09T05:51:04;27.88;;;10.70;;
70406;SDS011;57821;52.202;0.154;2022-09-09T05:53:32;27.77;;;10.38;;
70406;SDS011;57821;52.202;0.154;2022-09-09T05:56:03;21.85;;;11.50;;
70406;SDS011;57821;52.202;0.154;2022-09-09T05:58:33;25.90;;;13.20;;
70406;SDS011;57821;52.202;0.154;2022-09-09T06:01:07;35.97;;;16.58;;
70406;SDS011;57821;52.202;0.154;2022-09-09T06:03:36;43.10;;;17.05;;
70406;SDS011;57821;52.202;0.154;2022-09-09T06:06:06;36.25;;;17.80;;
70406;SDS011;57821;52.202;0.154;2022-09-09T06:08:35;40.30;;;18.17;;
70406;SDS011;57821;52.202;0.154;2022-09-09T06:11:05;31.52;;;15.77;;
70406;SDS011;57821;52.202;0.154;2022-09-09T06:13:36;37.05;;;14.52;;
70406;SDS011;57821;52.202;0.154;2022-09-09T06:16:03;32.72;;;14.43;;
70406;SDS011;57821;52.202;0.154;2022-09-09T06:18:30;37.30;;;14.23;;
70406;SDS011;57821;52.202;0.154;2022-09-09T06:20:57;30.35;;;14.20;;
70406;SDS011;57821;52.202;0.154;2022-09-09T06:23:25;37.45;;;13.50;;
70406;SDS011;57821;52.202;0.154;2022-09-09T06:28:40;32.53;;;13.00;;
70406;SDS011;57821;52.202;0.154;2022-09-09T06:31:07;28.33;;;13.48;;
70406;SDS011;57821;52.202;0.154;2022-09-09T06:33:37;37.40;;;13.45;;
70406;SDS011;57821;52.202;0.154;2022-09-09T06:36:05;32.55;;;12.82;;
70406;SDS011;57821;52.202;0.154;2022-09-09T06:38:35;33.95;;;13.73;;
70406;SDS011;57821;52.202;0.154;2022-09-09T06:41:02;33.50;;;13.57;;
70406;SDS011;57821;52.202;0.154;2022-09-09T06:43:30;35.55;;;14.82;;
70406;SDS011;57821;52.202;0.154;2022-09-09T06:46:00;33.30;;;12.70;;
70406;SDS011;57821;52.202;0.154;2022-09-09T06:48:31;36.38;;;13.73;;
70406;SDS011;57821;52.202;0.154;2022-09-09T06:53:32;32.10;;;11.85;;
70406;SDS011;57821;52.202;0.154;2022-09-09T06:56:01;30.77;;;12.27;;
70406;SDS011;57821;52.202;0.154;2022-09-09T06:58:29;32.65;;;12.80;;
70406;SDS011;57821;52.202;0.154;2022-09-09T07:01:05;32.92;;;13.77;;
70406;SDS011;57821;52.202;0.154;2022-09-09T07:03:34;42.38;;;14.57;;
70406;SDS011;57821;52.202;0.154;2022-09-09T07:06:00;43.85;;;15.50;;
70406;SDS011;57821;52.202;0.154;2022-09-09T07:08:27;48.72;;;17.98;;
70406;SDS011;57821;52.202;0.154;2022-09-09T07:10:54;44.30;;;16.83;;
70406;SDS011;57821;52.202;0.154;2022-09-09T07:13:27;49.83;;;16.40;;
70406;SDS011;57821;52.202;0.154;2022-09-09T07:15:55;42.33;;;17.35;;
70406;SDS011;57821;52.202;0.154;2022-09-09T07:18:21;56.55;;;18.35;;
70406;SDS011;57821;52.202;0.154;2022-09-09T07:20:54;45.90;;;16.50;;
70406;SDS011;57821;52.202;0.154;2022-09-09T07:23:22;47.40;;;17.27;;
70406;SDS011;57821;52.202;0.154;2022-09-09T07:25:49;46.78;;;15.77;;
70406;SDS011;57821;52.202;0.154;2022-09-09T07:28:16;46.65;;;16.20;;
70406;SDS011;57821;52.202;0.154;2022-09-09T07:30:43;40.95;;;14.18;;
70406;SDS011;57821;52.202;0.154;2022-09-09T07:33:09;40.83;;;14.13;;
70406;SDS011;57821;52.202;0.154;2022-09-09T07:35:36;39.35;;;14.70;;
70406;SDS011;57821;52.202;0.154;2022-09-09T07:38:03;34.83;;;13.30;;
70406;SDS011;57821;52.202;0.154;2022-09-09T07:40:29;39.92;;;15.73;;
70406;SDS011;57821;52.202;0.154;2022-09-09T07:42:56;33.80;;;14.50;;
70406;SDS011;57821;52.202;0.154;2022-09-09T07:45:23;39.55;;;13.23;;
70406;SDS011;57821;52.202;0.154;2022-09-09T07:47:49;38.20;;;13.80;;
70406;SDS011;57821;52.202;0.154;2022-09-09T07:50:16;39.55;;;15.25;;
70406;SDS011;57821;52.202;0.154;2022-09-09T07:52:43;37.08;;;14.20;;
70406;SDS011;57821;52.202;0.154;2022-09-09T07:55:10;38.70;;;14.80;;
70406;SDS011;57821;52.202;0.154;2022-09-09T07:57:36;34.20;;;13.80;;
70406;SDS011;57821;52.202;0.154;2022-09-09T08:00:03;37.83;;;13.73;;
70406;SDS011;57821;52.202;0.154;2022-09-09T08:02:37;29.25;;;13.68;;
70406;SDS011;57821;52.202;0.154;2022-09-09T08:05:04;39.58;;;13.77;;
70406;SDS011;57821;52.202;0.154;2022-09-09T08:07:30;32.00;;;14.30;;
70406;SDS011;57821;52.202;0.154;2022-09-09T08:09:57;38.85;;;15.93;;
70406;SDS011;57821;52.202;0.154;2022-09-09T08:12:28;33.08;;;14.88;;
70406;SDS011;57821;52.202;0.154;2022-09-09T08:14:55;37.42;;;13.95;;
70406;SDS011;57821;52.202;0.154;2022-09-09T08:17:26;37.23;;;14.30;;
70406;SDS011;57821;52.202;0.154;2022-09-09T08:19:52;31.27;;;13.57;;
70406;SDS011;57821;52.202;0.154;2022-09-09T08:22:23;31.90;;;13.25;;
70406;SDS011;57821;52.202;0.154;2022-09-09T08:24:49;36.97;;;14.40;;
70406;SDS011;57821;52.202;0.154;2022-09-09T08:27:17;37.50;;;14.40;;
70406;SDS011;57821;52.202;0.154;2022-09-09T08:29:43;29.17;;;13.90;;
70406;SDS011;57821;52.202;0.154;2022-09-09T08:32:10;28.13;;;12.65;;
70406;SDS011;57821;52.202;0.154;2022-09-09T08:34:38;25.38;;;11.95;;
70406;SDS011;57821;52.202;0.154;2022-09-09T08:37:10;34.58;;;13.00;;
70406;SDS011;57821;52.202;0.154;2022-09-09T08:39:39;27.70;;;11.52;;
70406;SDS011;57821;52.202;0.154;2022-09-09T08:42:12;24.75;;;11.07;;
70406;SDS011;57821;52.202;0.154;2022-09-09T08:50:51;22.25;;;10.15;;
70406;SDS011;57821;52.202;0.154;2022-09-09T08:53:26;25.95;;;10.80;;
70406;SDS011;57821;52.202;0.154;2022-09-09T08:55:59;26.73;;;11.13;;
70406;SDS011;57821;52.202;0.154;2022-09-09T08:59:00;24.98;;;10.02;;
70406;SDS011;57821;52.202;0.154;2022-09-09T09:02:37;16.58;;;8.18;;
70406;SDS011;57821;52.202;0.154;2022-09-09T09:04:56;21.30;;;8.90;;
70406;SDS011;57821;52.202;0.154;2022-09-09T09:10:45;19.92;;;8.85;;
70406;SDS011;57821;52.202;0.154;2022-09-09T09:13:24;17.02;;;8.50;;
70406;SDS011;57821;52.202;0.154;2022-09-09T09:15:56;16.30;;;8.43;;
70406;SDS011;57821;52.202;0.154;2022-09-09T09:18:28;21.75;;;10.02;;
70406;SDS011;57821;52.202;0.154;2022-09-09T09:23:36;22.92;;;9.30;;
70406;SDS011;57821;52.202;0.154;2022-09-09T09:26:11;14.90;;;7.75;;
70406;SDS011;57821;52.202;0.154;2022-09-09T09:28:39;18.25;;;6.88;;
70406;SDS011;57821;52.202;0.154;2022-09-09T09:31:12;14.50;;;6.40;;
70406;SDS011;57821;52.202;0.154;2022-09-09T09:33:49;16.90;;;6.45;;
70406;SDS011;57821;52.202;0.154;2022-09-09T09:36:19;14.77;;;6.35;;
70406;SDS011;57821;52.202;0.154;2022-09-09T09:38:54;15.33;;;6.87;;
70406;SDS011;57821;52.202;0.154;2022-09-09T09:41:46;17.30;;;6.13;;
70406;SDS011;57821;52.202;0.154;2022-09-09T09:47:16;17.13;;;6.07;;
70406;SDS011;57821;52.202;0.154;2022-09-09T09:49:55;15.45;;;5.22;;
70406;SDS011;57821;52.202;0.154;2022-09-09T09:52:24;13.40;;;5.20;;
70406;SDS011;57821;52.202;0.154;2022-09-09T09:54:53;16.00;;;5.35;;
70406;SDS011;57821;52.202;0.154;2022-09-09T09:57:28;13.02;;;4.72;;
70406;SDS011;57821;52.202;0.154;2022-09-09T10:00:20;12.63;;;4.90;;
70406;SDS011;57821;52.202;0.154;2022-09-09T10:03:12;14.30;;;5.50;;
70406;SDS011;57821;52.202;0.154;2022-09-09T10:05:48;12.95;;;5.40;;
70406;SDS011;57821;52.202;0.154;2022-09-09T10:08:16;15.35;;;6.18;;
70406;SDS011;57821;52.202;0.154;2022-09-09T10:18:39;9.40;;;3.13;;
70406;SDS011;57821;52.202;0.154;2022-09-09T10:21:20;9.68;;;2.67;;
70406;SDS011;57821;52.202;0.154;2022-09-09T10:26:38;7.68;;;2.22;;
70406;SDS011;57821;52.202;0.154;2022-09-09T10:32:04;7.47;;;2.20;;
70406;SDS011;57821;52.202;0.154;2022-09-09T10:48:58;7.40;;;1.70;;
70406;SDS011;57821;52.202;0.154;2022-09-09T11:00:06;7.13;;;2.08;;
70406;SDS011;57821;52.202;0.154;2022-09-09T11:02:41;7.40;;;2.20;;
70406;SDS011;57821;52.202;0.154;2022-09-09T11:05:18;6.13;;;2.15;;
70406;SDS011;57821;52.202;0.154;2022-09-09T11:11:21;9.63;;;2.60;;
70406;SDS011;57821;52.202;0.154;2022-09-09T11:13:34;5.85;;;1.90;;
70406;SDS011;57821;52.202;0.154;2022-09-09T11:22:14;7.40;;;2.17;;
70406;SDS011;57821;52.202;0.154;2022-09-09T11:24:48;6.95;;;2.40;;
70406;SDS011;57821;52.202;0.154;2022-09-09T11:33:11;7.22;;;2.17;;
70406;SDS011;57821;52.202;0.154;2022-09-09T11:38:45;7.97;;;1.87;;
70406;SDS011;57821;52.202;0.154;2022-09-09T11:41:13;8.13;;;2.05;;
70406;SDS011;57821;52.202;0.154;2022-09-09T11:43:50;8.52;;;1.90;;
70406;SDS011;57821;52.202;0.154;2022-09-09T11:48:58;6.05;;;1.63;;
70406;SDS011;57821;52.202;0.154;2022-09-09T11:51:28;4.95;;;1.83;;
70406;SDS011;57821;52.202;0.154;2022-09-09T11:54:03;4.68;;;1.55;;
70406;SDS011;57821;52.202;0.154;2022-09-09T11:56:54;6.13;;;1.83;;
70406;SDS011;57821;52.202;0.154;2022-09-09T11:59:24;8.77;;;1.80;;
70406;SDS011;57821;52.202;0.154;2022-09-09T12:02:12;6.07;;;1.70;;
70406;SDS011;57821;52.202;0.154;2022-09-09T12:04:50;8.45;;;2.00;;
70406;SDS011;57821;52.202;0.154;2022-09-09T12:07:29;7.97;;;2.42;;
70406;SDS011;57821;52.202;0.154;2022-09-09T12:10:19;7.97;;;2.10;;
70406;SDS011;57821;52.202;0.154;2022-09-09T12:12:46;9.02;;;2.25;;
70406;SDS011;57821;52.202;0.154;2022-09-09T12:15:17;8.68;;;2.35;;
70406;SDS011;57821;52.202;0.154;2022-09-09T12:17:50;7.82;;;2.40;;
70406;SDS011;57821;52.202;0.154;2022-09-09T12:28:22;9.18;;;3.33;;
70406;SDS011;57821;52.202;0.154;2022-09-09T12:33:51;9.32;;;3.42;;
70406;SDS011;57821;52.202;0.154;2022-09-09T12:36:28;7.80;;;4.00;;
70406;SDS011;57821;52.202;0.154;2022-09-09T12:38:59;9.20;;;4.03;;
70406;SDS011;57821;52.202;0.154;2022-09-09T12:42:17;8.48;;;4.13;;
70406;SDS011;57821;52.202;0.154;2022-09-09T12:44:52;9.20;;;5.00;;
70406;SDS011;57821;52.202;0.154;2022-09-09T12:47:48;10.88;;;5.03;;
70406;SDS011;57821;52.202;0.154;2022-09-09T12:50:15;7.47;;;3.20;;
70406;SDS011;57821;52.202;0.154;2022-09-09T12:52:44;6.30;;;2.40;;
70406;SDS011;57821;52.202;0.154;2022-09-09T12:55:28;6.32;;;2.40;;
70406;SDS011;57821;52.202;0.154;2022-09-09T12:57:56;8.60;;;2.40;;
70406;SDS011;57821;52.202;0.154;2022-09-09T13:00:24;6.68;;;2.42;;
70406;SDS011;57821;52.202;0.154;2022-09-09T13:02:52;8.02;;;2.35;;
70406;SDS011;57821;52.202;0.154;2022-09-09T13:07:51;5.03;;;2.00;;
70406;SDS011;57821;52.202;0.154;2022-09-09T13:10:27;6.07;;;2.03;;
70406;SDS011;57821;52.202;0.154;2022-09-09T13:13:15;6.38;;;1.92;;
70406;SDS011;57821;52.202;0.154;2022-09-09T13:15:55;4.47;;;1.60;;
70406;SDS011;57821;52.202;0.154;2022-09-09T13:18:28;6.43;;;2.03;;
70406;SDS011;57821;52.202;0.154;2022-09-09T13:20:56;4.53;;;1.30;;
70406;SDS011;57821;52.202;0.154;2022-09-09T13:23:26;6.70;;;1.50;;
70406;SDS011;57821;52.202;0.154;2022-09-09T13:26:02;4.22;;;1.05;;
70406;SDS011;57821;52.202;0.154;2022-09-09T13:28:46;6.05;;;1.63;;
70406;SDS011;57821;52.202;0.154;2022-09-09T13:34:25;4.90;;;1.40;;
70406;SDS011;57821;52.202;0.154;2022-09-09T13:36:59;5.95;;;1.60;;
70406;SDS011;57821;52.202;0.154;2022-09-09T13:39:27;5.60;;;1.30;;
70406;SDS011;57821;52.202;0.154;2022-09-09T13:41:54;6.90;;;1.70;;
70406;SDS011;57821;52.202;0.154;2022-09-09T13:44:22;7.75;;;2.03;;
70406;SDS011;57821;52.202;0.154;2022-09-09T13:47:04;5.60;;;1.70;;
70406;SDS011;57821;52.202;0.154;2022-09-09T13:49:51;4.10;;;1.20;;
70406;SDS011;57821;52.202;0.154;2022-09-09T13:52:18;5.75;;;1.00;;
70406;SDS011;57821;52.202;0.154;2022-09-09T13:54:49;5.03;;;1.42;;
70406;SDS011;57821;52.202;0.154;2022-09-09T13:59:50;5.78;;;1.27;;
70406;SDS011;57821;52.202;0.154;2022-09-09T14:02:30;6.85;;;1.70;;
70406;SDS011;57821;52.202;0.154;2022-09-09T14:04:57;6.70;;;1.90;;
70406;SDS011;57821;52.202;0.154;2022-09-09T14:07:24;6.22;;;1.80;;
70406;SDS011;57821;52.202;0.154;2022-09-09T14:09:50;9.45;;;2.88;;
70406;SDS011;57821;52.202;0.154;2022-09-09T14:12:17;7.13;;;2.40;;
70406;SDS011;57821;52.202;0.154;2022-09-09T14:14:43;8.55;;;2.38;;
70406;SDS011;57821;52.202;0.154;2022-09-09T14:17:10;9.07;;;3.20;;
70406;SDS011;57821;52.202;0.154;2022-09-09T14:19:36;6.10;;;3.08;;
70406;SDS011;57821;52.202;0.154;2022-09-09T14:22:03;7.18;;;3.05;;
70406;SDS011;57821;52.202;0.154;2022-09-09T14:24:30;10.32;;;3.40;;
70406;SDS011;57821;52.202;0.154;2022-09-09T14:26:56;8.32;;;3.10;;
70406;SDS011;57821;52.202;0.154;2022-09-09T14:29:23;10.88;;;3.38;;
70406;SDS011;57821;52.202;0.154;2022-09-09T14:31:49;9.25;;;3.10;;
70406;SDS011;57821;52.202;0.154;2022-09-09T14:34:16;10.25;;;2.80;;
70406;SDS011;57821;52.202;0.154;2022-09-09T14:36:42;7.63;;;3.15;;
70406;SDS011;57821;52.202;0.154;2022-09-09T14:39:09;8.07;;;2.40;;
70406;SDS011;57821;52.202;0.154;2022-09-09T14:41:35;9.80;;;2.50;;
70406;SDS011;57821;52.202;0.154;2022-09-09T14:44:02;7.75;;;3.25;;
70406;SDS011;57821;52.202;0.154;2022-09-09T14:46:28;7.78;;;3.05;;
70406;SDS011;57821;52.202;0.154;2022-09-09T14:48:55;9.15;;;3.45;;
70406;SDS011;57821;52.202;0.154;2022-09-09T14:51:22;8.93;;;3.28;;
70406;SDS011;57821;52.202;0.154;2022-09-09T14:53:51;7.35;;;3.30;;
70406;SDS011;57821;52.202;0.154;2022-09-09T14:56:19;8.27;;;3.28;;
70406;SDS011;57821;52.202;0.154;2022-09-09T14:58:47;9.38;;;3.40;;
70406;SDS011;57821;52.202;0.154;2022-09-09T15:01:15;7.78;;;3.20;;
70406;SDS011;57821;52.202;0.154;2022-09-09T15:03:51;8.32;;;3.20;;
70406;SDS011;57821;52.202;0.154;2022-09-09T15:06:26;7.97;;;3.38;;
70406;SDS011;57821;52.202;0.154;2022-09-09T15:08:54;12.77;;;3.58;;
70406;SDS011;57821;52.202;0.154;2022-09-09T15:11:21;7.88;;;3.63;;
70406;SDS011;57821;52.202;0.154;2022-09-09T15:13:50;9.25;;;3.60;;
70406;SDS011;57821;52.202;0.154;2022-09-09T15:16:18;9.27;;;3.90;;
70406;SDS011;57821;52.202;0.154;2022-09-09T15:18:46;8.18;;;3.63;;
70406;SDS011;57821;52.202;0.154;2022-09-09T15:21:14;12.30;;;3.28;;
70406;SDS011;57821;52.202;0.154;2022-09-09T15:23:42;7.07;;;2.58;;
70406;SDS011;57821;52.202;0.154;2022-09-09T15:26:09;9.15;;;3.00;;
70406;SDS011;57821;52.202;0.154;2022-09-09T15:28:36;29.20;;;4.05;;
70406;SDS011;57821;52.202;0.154;2022-09-09T15:31:07;6.30;;;2.63;;
70406;SDS011;57821;52.202;0.154;2022-09-09T15:33:49;6.63;;;3.17;;
70406;SDS011;57821;52.202;0.154;2022-09-09T15:38:48;7.47;;;3.50;;
70406;SDS011;57821;52.202;0.154;2022-09-09T15:41:15;6.80;;;3.10;;
70406;SDS011;57821;52.202;0.154;2022-09-09T15:43:46;7.00;;;3.47;;
70406;SDS011;57821;52.202;0.154;2022-09-09T15:48:44;8.40;;;3.03;;
70406;SDS011;57821;52.202;0.154;2022-09-09T15:51:14;6.55;;;2.92;;
70406;SDS011;57821;52.202;0.154;2022-09-09T15:54:00;6.85;;;2.80;;
70406;SDS011;57821;52.202;0.154;2022-09-09T15:56:28;6.25;;;2.95;;
70406;SDS011;57821;52.202;0.154;2022-09-09T15:58:55;8.50;;;3.17;;
70406;SDS011;57821;52.202;0.154;2022-09-09T16:01:23;9.43;;;3.60;;
70406;SDS011;57821;52.202;0.154;2022-09-09T16:03:49;7.18;;;3.15;;
70406;SDS011;57821;52.202;0.154;2022-09-09T16:06:17;7.57;;;3.35;;
70406;SDS011;57821;52.202;0.154;2022-09-09T16:08:45;11.65;;;4.60;;
70406;SDS011;57821;52.202;0.154;2022-09-09T16:11:13;7.15;;;3.38;;
70406;SDS011;57821;52.202;0.154;2022-09-09T16:13:42;10.73;;;3.78;;
70406;SDS011;57821;52.202;0.154;2022-09-09T16:16:16;9.77;;;3.42;;
70406;SDS011;57821;52.202;0.154;2022-09-09T16:18:44;9.70;;;3.60;;
70406;SDS011;57821;52.202;0.154;2022-09-09T16:21:17;8.15;;;3.30;;
70406;SDS011;57821;52.202;0.154;2022-09-09T16:23:55;8.25;;;3.22;;
70406;SDS011;57821;52.202;0.154;2022-09-09T16:26:22;8.27;;;3.28;;
70406;SDS011;57821;52.202;0.154;2022-09-09T16:28:49;9.85;;;2.72;;
70406;SDS011;57821;52.202;0.154;2022-09-09T16:31:17;4.22;;;2.10;;
70406;SDS011;57821;52.202;0.154;2022-09-09T16:33:45;5.57;;;2.30;;
70406;SDS011;57821;52.202;0.154;2022-09-09T16:36:13;5.72;;;1.77;;
70406;SDS011;57821;52.202;0.154;2022-09-09T16:38:41;6.55;;;2.00;;
70406;SDS011;57821;52.202;0.154;2022-09-09T16:41:09;5.65;;;1.77;;
70406;SDS011;57821;52.202;0.154;2022-09-09T16:43:37;7.85;;;2.45;;
70406;SDS011;57821;52.202;0.154;2022-09-09T16:46:14;5.82;;;2.45;;
70406;SDS011;57821;52.202;0.154;2022-09-09T16:48:43;8.65;;;2.22;;
70406;SDS011;57821;52.202;0.154;2022-09-09T16:51:12;6.68;;;2.25;;
70406;SDS011;57821;52.202;0.154;2022-09-09T16:53:41;6.25;;;2.22;;
70406;SDS011;57821;52.202;0.154;2022-09-09T16:56:09;8.18;;;2.47;;
70406;SDS011;57821;52.202;0.154;2022-09-09T16:58:38;5.38;;;2.10;;
70406;SDS011;57821;52.202;0.154;2022-09-09T17:01:05;8.15;;;2.75;;
70406;SDS011;57821;52.202;0.154;2022-09-09T17:03:32;6.63;;;2.55;;
70406;SDS011;57821;52.202;0.154;2022-09-09T17:05:58;5.75;;;2.38;;
70406;SDS011;57821;52.202;0.154;2022-09-09T17:08:25;6.22;;;1.90;;
70406;SDS011;57821;52.202;0.154;2022-09-09T17:10:52;6.18;;;2.00;;
70406;SDS011;57821;52.202;0.154;2022-09-09T17:13:18;6.40;;;2.10;;
70406;SDS011;57821;52.202;0.154;2022-09-09T17:15:44;7.50;;;2.13;;
70406;SDS011;57821;52.202;0.154;2022-09-09T17:18:12;7.20;;;2.10;;
70406;SDS011;57821;52.202;0.154;2022-09-09T17:20:39;7.65;;;2.28;;